Beryl, UT (84714)

10:50 PM MDT on October 21, 2014 (GMT -0600)
RAWS ENTERPRISE UT US | Change Station
CLOSE
Current Station
Personal Weather Station
Location: Enterprise, UT
Elevation: 5398 ft
Nearby Weather Stations

Elev 5398 ft 37.56 °N, 113.72 °W | Updated 47 minutes ago

Clear
Clear
50 °F
Feels Like 49 °F
N
4
Wind Variable Wind from SSW
Gusts 6.0 mph

Today
High -- | Low -- °F
--% Chance of Precip.
Yesterday
High -- | Low -- °F
Precip. -- in
7:48 AM 6:49 PM
Waning Crescent, 3% visible
Pressure 29.88 in
Visibility 10.0 miles
Clouds Clear
Windchill 49 °F
Dew Point 34 °F
Humidity 53%
Rainfall 0.00 in
Snow Depth 0 in
UV 0 out of 12
Pollen 4.20 out of 12
Air Quality Not available.
Flu Activity Sporadic
METAR KCDC 220353Z AUTO 14007KT 10SM CLR 12/03 A3003 RMK AO2 SLP117 T01220028 TSNO

More Conditions Fewer Conditions

Pressure 29.88 in
Visibility 10.0 miles
Clouds Clear
Windchill 49 °F
Dew Point 34 °F
Humidity 53%
Rainfall 0.00 in
Snow Depth 0 in
UV 0 out of 12
Pollen 4.20 out of 12
Air Quality Not available.
Flu Activity Sporadic
METAR KCDC 220353Z AUTO 14007KT 10SM CLR 12/03 A3003 RMK AO2 SLP117 T01220028 TSNO

More Conditions Fewer Conditions

10-Day Weather Forecast

Almanac

Astronomy

Oct. 21, 2014 Rise Set
Actual Time 7:48 AM MDT 6:49 PM MDT
Civil Twilight 7:22 AM MDT 7:15 PM MDT
Nautical Twilight 6:51 AM MDT 7:46 PM MDT
Astronomical Twilight 6:21 AM MDT 8:16 PM MDT
Moon 5:39 AM MDT (10/21) 5:43 PM MDT (10/21)
Length of Visible Light 11h 53m
Length of Day
11h 00m
Tomorrow will be 2m 16s shorter.
Waning Crescent, 3% of the Moon is Illuminated
Oct 22
Waning Crescent
Oct 23
New
Oct 30
First Quarter
Nov 6
Full
Nov 14
Last Quarter

Yesterday's Extremes

State Highs State Lows

Community

WunderPhotos

Upload Photos

1,763,882 photos uploaded!

Nearby

Snow Depth

Station Depth Elevation
Long Flat 0 in 8000 ft
Webster Flat 0 in 9200 ft
Long Valley Jct 1 in 7360 ft
Agua Canyon 0 in 8900 ft
Merchant Valley 0 in 8750 ft

Earthquake Activity

City Distance Mag. Time & Date
No recent earthquake activity has been reported nearby.
Minimum magnitude displayed is 2.5.

Coastal Water Temperatures

Place Temperature
No Stations Reporting

Nearby Weather Stations